• Join FlightAware (Why Join?)
  • Login
  • US Flag 
12:20PM EST


 

Airport Tracker/Info


-or-


 

Live Flight TrackerFlight Track Log ✈ VH-JTG ✈ 02-May-2013 ✈ YBBN / BNE - YBTL / TSV

Flight Track Log - Related Links

Times and Time Zones

All times are in EDT time to prevent confusion due to time zone crossing. See the VH-JTG flight status page for this flight to view local times or setup timezone preferences in your user account.

Time Position Orientation Groundspeed Altitude Reporting Facility
EDT Latitude Longitude Course Direction KTS MPH feet Rate Location/Type
09:58PM -27.4107 153.1147 206° Southwest 157 181 1,200  Level Aus ATC (RADAR)
09:58PM -27.4266 153.1059 206° Southwest 179 206 1,800 2,700 Climbing Aus ATC (RADAR)
09:59PM -27.4761 153.0763 208° Southwest 218 251 4,600 2,520 Climbing Aus ATC (RADAR)
10:00PM -27.4891 153.0661 215° Southwest 220 253 4,800 2,580 Climbing Aus ATC (RADAR)
10:00PM -27.4828 153.0137 278° West 251 289 7,000 2,580 Climbing Aus ATC (RADAR)
10:02PM -27.3767 153.0298 North 280 322 10,500 2,220 Climbing Aus ATC (RADAR)
10:02PM -27.3537 153.0471 34° Northeast 294 338 11,100 1,680 Climbing Aus ATC (RADAR)
10:03PM -27.2865 153.1008 35° Northeast 328 377 12,600 1,800 Climbing Aus ATC (RADAR)
10:04PM -27.2454 153.1420 42° Northeast 341 392 13,800 1,860 Climbing Aus ATC (RADAR)
10:05PM -27.1671 153.1837 25° Northeast 347 399 15,400 1,800 Climbing Aus ATC (RADAR)
10:05PM -27.1119 153.1958 11° North 346 398 16,500 2,040 Climbing Aus ATC (RADAR)
10:06PM -27.0175 153.2167 11° North 346 398 18,700 2,100 Climbing Aus ATC (RADAR)
10:07PM -26.9305 153.2188 North 342 394 20,600 2,400 Climbing Aus ATC (RADAR)
10:08PM -26.8385 153.1641 332° Northwest 309 356 23,700 2,640 Climbing Aus ATC (RADAR)
10:09PM -26.7442 153.1083 332° Northwest 275 316 27,300 2,220 Climbing Aus ATC (RADAR)
10:11PM -26.6392 153.0462 332° Northwest 265 305 30,300 1,800 Climbing Aus ATC (RADAR)
10:12PM -26.5836 153.0131 332° Northwest 267 307 31,700 1,620 Climbing Aus ATC (RADAR)
10:13PM -26.5330 152.9835 332° Northwest 270 311 32,900 1,860 Climbing Aus ATC (RADAR)
10:13PM -26.4943 152.9610 332° Northwest 262 302 34,200 2,160 Climbing Aus ATC (RADAR)
10:14PM -26.4411 152.9279 331° Northwest 229 264 36,200 1,320 Climbing Aus ATC (RADAR)
10:15PM -26.4064 152.9075 332° Northwest 241 277 36,200 -120 Level Aus ATC (RADAR)
10:16PM -26.3389 152.8679 332° Northwest 279 321 36,100 -120 Descending Aus ATC (RADAR)
10:16PM -26.2956 152.8422 332° Northwest 301 346 36,100  Level Aus ATC (RADAR)
10:18PM -26.1562 152.7609 332° Northwest 350 403 36,100  Level Aus ATC (RADAR)
10:19PM -26.0842 152.7191 332° Northwest 347 399 36,100  Level Aus ATC (RADAR)
10:20PM -25.9984 152.6694 332° Northwest 345 397 36,100  Level Aus ATC (RADAR)
10:20PM -25.9410 152.6352 332° Northwest 345 397 36,100  Level Aus ATC (RADAR)
10:21PM -25.8702 152.5936 332° Northwest 342 394 36,100  Level Aus ATC (RADAR)
10:22PM -25.8056 152.5569 333° Northwest 344 396 36,100  Level Aus ATC (RADAR)
10:23PM -25.7347 152.5152 332° Northwest 344 396 36,100  Level Aus ATC (RADAR)
10:23PM -25.6846 152.4862 333° Northwest 346 398 36,100  Level Aus ATC (RADAR)
10:24PM -25.6066 152.4405 332° Northwest 343 395 36,100  Level Aus ATC (RADAR)
10:25PM -25.5567 152.4113 332° Northwest 344 396 36,100  Level Aus ATC (RADAR)
10:26PM -25.4716 152.3615 332° Northwest 345 397 36,100  Level Aus ATC (RADAR)
10:26PM -25.4503 152.3492 333° Northwest 343 395 36,100  Level Aus ATC (RADAR)
10:28PM -25.3223 152.2754 332° Northwest 343 395 36,100  Level Aus ATC (RADAR)
10:28PM -25.3006 152.2634 333° Northwest 345 397 36,100  Level Aus ATC (RADAR)
10:29PM -25.2437 152.2299 332° Northwest 345 397 36,100  Level Aus ATC (RADAR)
10:30PM -25.1503 152.1763 333° Northwest 349 402 36,100  Level Aus ATC (RADAR)
10:30PM -25.1003 152.1473 332° Northwest 347 399 36,100  Level Aus ATC (RADAR)
10:31PM -25.0290 152.1062 332° Northwest 347 399 36,100  Level Aus ATC (RADAR)
10:32PM -24.9905 152.0753 324° Northwest 340 391 36,100  Level Aus ATC (RADAR)
10:33PM -24.9059 152.0100 325° Northwest 341 392 36,100  Level Aus ATC (RADAR)
10:33PM -24.8799 151.9897 325° Northwest 342 394 36,100  Level Aus ATC (RADAR)
10:34PM -24.8348 151.9537 324° Northwest 342 394 36,100  Level Aus ATC (RADAR)
10:35PM -24.7568 151.8929 325° Northwest 342 394 36,100  Level Aus ATC (RADAR)
10:35PM -24.7114 151.8575 325° Northwest 342 394 36,100  Level Aus ATC (RADAR)
10:36PM -24.6398 151.8019 325° Northwest 342 394 36,100  Level Aus ATC (RADAR)
10:37PM -24.6072 151.7765 325° Northwest 343 395 36,100  Level Aus ATC (RADAR)
10:40PM -24.3197 151.5538 325° Northwest 344 396 36,100  Level Aus ATC (RADAR)
10:42PM -24.1689 151.4373 325° Northwest 345 397 36,100  Level Aus ATC (RADAR)
10:44PM -24.0174 151.3211 325° Northwest 346 398 36,100  Level Aus ATC (RADAR)
10:46PM -23.8917 151.2253 325° Northwest 349 402 36,100  Level Aus ATC (RADAR)
10:47PM -23.7462 151.1279 328° Northwest 351 404 36,100  Level Aus ATC (RADAR)
10:49PM -23.6119 151.0415 329° Northwest 353 406 36,100  Level Aus ATC (RADAR)
10:50PM -23.4848 150.9600 330° Northwest 354 407 36,100  Level Aus ATC (RADAR)
10:52PM -23.3496 150.8734 330° Northwest 356 410 36,100  Level Aus ATC (RADAR)
10:54PM -23.2210 150.7912 330° Northwest 358 412 36,100  Level Aus ATC (RADAR)
10:55PM -23.0852 150.7047 330° Northwest 358 412 36,100  Level Aus ATC (RADAR)
10:57PM -22.9568 150.6222 329° Northwest 359 413 36,100  Level Aus ATC (RADAR)
10:58PM -22.8280 150.5409 330° Northwest 356 410 36,100  Level Aus ATC (RADAR)
11:00PM -22.6920 150.4548 330° Northwest 356 410 36,100  Level Aus ATC (RADAR)
11:01PM -22.5768 150.3823 330° Northwest 358 412 36,100  Level Aus ATC (RADAR)
11:02PM -22.4477 150.3005 330° Northwest 359 413 36,100  Level Aus ATC (RADAR)
11:04PM -22.3101 150.2147 330° Northwest 362 417 36,100  Level Aus ATC (RADAR)
11:06PM -22.1968 150.1015 317° Northwest 350 403 36,100  Level Aus ATC (RADAR)
11:07PM -22.1142 149.9943 310° West 348 400 36,100  Level Aus ATC (RADAR)
11:08PM -22.0208 149.8741 310° West 349 402 36,100  Level Aus ATC (RADAR)
11:09PM -21.9848 149.8272 310° West 349 402 36,100  Level Aus ATC (RADAR)
11:09PM -21.9638 149.8006 310° West 348 400 36,100  Level Aus ATC (RADAR)
11:10PM -21.9274 149.7535 310° West 351 404 36,100  Level Aus ATC (RADAR)
11:11PM -21.8700 149.6801 310° West 349 402 36,100  Level Aus ATC (RADAR)
11:12PM -21.8283 149.6260 310° West 352 405 36,100  Level Aus ATC (RADAR)
11:12PM -21.7710 149.5521 310° West 351 404 36,100  Level Aus ATC (RADAR)
11:13PM -21.7296 149.4981 309° West 351 404 36,100  Level Aus ATC (RADAR)
11:14PM -21.6714 149.4247 310° West 352 405 36,100  Level Aus ATC (RADAR)
11:15PM -21.6341 149.3778 311° West 354 407 36,100  Level Aus ATC (RADAR)
11:16PM -21.5768 149.3032 310° West 354 407 36,100  Level Aus ATC (RADAR)
11:17PM -21.4651 149.1620 310° West 353 406 36,100  Level Aus ATC (RADAR)
11:18PM -21.3906 149.0689 311° West 353 406 36,100  Level Aus ATC (RADAR)
11:19PM -21.3752 149.0484 309° West 354 407 36,100  Level Aus ATC (RADAR)
11:20PM -21.3117 148.9682 310° West 352 405 36,100  Level Aus ATC (RADAR)
11:20PM -21.2741 148.9213 311° West 356 410 36,100  Level Aus ATC (RADAR)
11:22PM -21.1732 148.7945 310° West 352 405 36,100  Level Aus ATC (RADAR)
11:22PM -21.1519 148.7677 310° West 353 406 36,100  Level Aus ATC (RADAR)
11:23PM -21.1040 148.7074 310° West 353 406 36,100  Level Aus ATC (RADAR)
11:24PM -21.0663 148.6606 311° West 355 409 36,100  Level Aus ATC (RADAR)
11:25PM -21.0016 148.5803 311° West 357 411 36,100  Level Aus ATC (RADAR)
11:25PM -20.9588 148.5261 310° West 357 411 36,100  Level Aus ATC (RADAR)
11:26PM -20.8952 148.4447 310° West 358 412 36,100  Level Aus ATC (RADAR)
11:27PM -20.8366 148.3704 310° West 357 411 36,100  Level Aus ATC (RADAR)
11:28PM -20.7885 148.3094 310° West 357 411 36,100  Level Aus ATC (RADAR)
11:29PM -20.7459 148.2560 310° West 357 411 36,100  Level Aus ATC (RADAR)
11:30PM -20.6814 148.1750 310° West 357 411 36,100  Level Aus ATC (RADAR)
11:30PM -20.6437 148.1279 311° West 358 412 36,100  Level Aus ATC (RADAR)
11:31PM -20.5846 148.0534 310° West 360 414 36,100  Level Aus ATC (RADAR)
11:33PM -20.4869 147.9318 311° West 359 413 36,100  Level Aus ATC (RADAR)
11:33PM -20.4703 147.9115 311° West 362 417 36,100  Level Aus ATC (RADAR)
11:33PM -20.4330 147.8638 310° West 359 413 36,100 -120 Level Aus ATC (RADAR)
11:34PM -20.3671 147.7830 311° West 361 415 36,000 -300 Descending Aus ATC (RADAR)
11:35PM -20.3285 147.7352 311° West 366 421 35,700 -1,680 Descending Aus ATC (RADAR)
11:36PM -20.2566 147.6439 310° West 370 426 33,200 -2,280 Descending Aus ATC (RADAR)
11:37PM -20.1911 147.5638 311° West 357 411 31,000 -2,280 Descending Aus ATC (RADAR)
11:38PM -20.1543 147.5177 310° West 350 403 29,600 -2,280 Descending Aus ATC (RADAR)
11:38PM -20.1388 147.4980 310° West 348 400 29,100 -2,280 Descending Aus ATC (RADAR)
11:38PM -20.1027 147.4535 311° West 342 394 27,700 -2,340 Descending Aus ATC (RADAR)
11:39PM -20.0470 147.3848 311° West 333 383 25,600 -2,280 Descending Aus ATC (RADAR)
11:40PM -20.0069 147.3358 311° West 328 377 24,100 -2,340 Descending Aus ATC (RADAR)
11:41PM -19.9429 147.2565 311° West 326 375 21,600 -2,340 Descending Aus ATC (RADAR)
11:42PM -19.8796 147.1785 311° West 321 369 19,100 -2,280 Descending Aus ATC (RADAR)
11:43PM -19.8461 147.1366 310° West 319 367 17,800 -2,280 Descending Aus ATC (RADAR)
11:43PM -19.8310 147.1193 313° West 318 366 17,200 -2,280 Descending Aus ATC (RADAR)
11:44PM -19.7982 147.0776 310° West 316 364 15,900 -2,160 Descending Aus ATC (RADAR)
11:45PM -19.7411 147.0083 311° West 311 358 13,800 -2,160 Descending Aus ATC (RADAR)
11:45PM -19.7094 146.9690 310° West 304 350 12,500 -2,160 Descending Aus ATC (RADAR)
11:46PM -19.6544 146.9019 311° West 300 345 10,500 -2,040 Descending Aus ATC (RADAR)
11:48PM -19.5786 146.8087 311° West 290 334 7,700 -1,920 Descending Aus ATC (RADAR)
11:48PM -19.5404 146.7625 311° West 278 320 6,400 -1,800 Descending Aus ATC (RADAR)
11:49PM -19.5279 146.7469 311° West 277 319 5,900 -1,800 Descending Aus ATC (RADAR)
11:49PM -19.4988 146.7113 311° West 276 318 4,900 -1,440 Descending Aus ATC (RADAR)
11:50PM -19.4520 146.6714 321° Northwest 263 303 3,900 -1,140 Descending Aus ATC (RADAR)
11:50PM -19.4236 146.6795 15° North 254 292 3,500 -1,140 Descending Aus ATC (RADAR)
11:51PM -19.3681 146.7122 29° Northeast 214 246 2,300 -1,200 Descending Aus ATC (RADAR)
11:52PM -19.3552 146.7185 25° Northeast 206 237 2,000 -840 Descending Aus ATC (RADAR)
11:54PM -19.2773 146.7553 24° Northeast 129 148 500 -780 Descending Aus ATC (RADAR)
11:54PM -19.2695 146.7599 29° Northeast 127 146 300 -840 Descending Aus ATC (RADAR)